sensor_id;sensor_type;location;lat;lon;timestamp;pressure;altitude;pressure_sealevel;temperature;humidity
32251;BME280;41295;48.518;9.206;2023-04-09T00:00:24;97825.03;;;8.58;65.92
32251;BME280;41295;48.518;9.206;2023-04-09T00:02:28;97823.31;;;8.58;66.12
32251;BME280;41295;48.518;9.206;2023-04-09T00:04:30;97829.31;;;8.62;65.89
32251;BME280;41295;48.518;9.206;2023-04-09T00:06:33;97824.06;;;8.63;65.90
32251;BME280;41295;48.518;9.206;2023-04-09T00:08:36;97823.22;;;8.63;65.97
32251;BME280;41295;48.518;9.206;2023-04-09T00:10:38;97818.00;;;8.64;65.60
32251;BME280;41295;48.518;9.206;2023-04-09T00:12:41;97811.03;;;8.65;65.88
32251;BME280;41295;48.518;9.206;2023-04-09T00:14:43;97828.34;;;8.66;65.78
32251;BME280;41295;48.518;9.206;2023-04-09T00:16:46;97825.75;;;8.66;66.11
32251;BME280;41295;48.518;9.206;2023-04-09T00:18:50;97819.69;;;8.65;66.03
32251;BME280;41295;48.518;9.206;2023-04-09T00:20:53;97816.28;;;8.63;66.20
32251;BME280;41295;48.518;9.206;2023-04-09T00:22:55;97815.53;;;8.57;65.99
32251;BME280;41295;48.518;9.206;2023-04-09T00:24:58;97818.16;;;8.57;66.15
32251;BME280;41295;48.518;9.206;2023-04-09T00:27:01;97823.34;;;8.55;66.22
32251;BME280;41295;48.518;9.206;2023-04-09T00:29:04;97809.50;;;8.54;66.57
32251;BME280;41295;48.518;9.206;2023-04-09T00:31:06;97812.09;;;8.56;66.78
32251;BME280;41295;48.518;9.206;2023-04-09T00:33:10;97809.50;;;8.54;66.78
32251;BME280;41295;48.518;9.206;2023-04-09T00:35:14;97811.19;;;8.59;66.47
32251;BME280;41295;48.518;9.206;2023-04-09T00:37:17;97810.34;;;8.55;66.11
32251;BME280;41295;48.518;9.206;2023-04-09T00:39:20;97819.94;;;8.51;66.42
32251;BME280;41295;48.518;9.206;2023-04-09T00:41:22;97817.38;;;8.50;66.24
32251;BME280;41295;48.518;9.206;2023-04-09T00:43:25;97814.78;;;8.50;66.63
32251;BME280;41295;48.518;9.206;2023-04-09T00:45:28;97818.25;;;8.50;66.72
32251;BME280;41295;48.518;9.206;2023-04-09T00:47:31;97811.31;;;8.49;66.61
32251;BME280;41295;48.518;9.206;2023-04-09T00:49:34;97810.47;;;8.49;66.83
32251;BME280;41295;48.518;9.206;2023-04-09T00:51:38;97810.47;;;8.50;66.60
32251;BME280;41295;48.518;9.206;2023-04-09T00:53:41;97813.88;;;8.51;67.15
32251;BME280;41295;48.518;9.206;2023-04-09T00:55:45;97812.13;;;8.53;67.10
32251;BME280;41295;48.518;9.206;2023-04-09T00:57:48;97813.84;;;8.54;66.91
32251;BME280;41295;48.518;9.206;2023-04-09T00:59:51;97813.81;;;8.57;66.97
32251;BME280;41295;48.518;9.206;2023-04-09T01:01:53;97814.69;;;8.56;66.79
32251;BME280;41295;48.518;9.206;2023-04-09T01:03:56;97802.56;;;8.57;66.87
32251;BME280;41295;48.518;9.206;2023-04-09T01:06:05;97804.28;;;8.56;66.80
32251;BME280;41295;48.518;9.206;2023-04-09T01:08:15;97802.56;;;8.57;67.20
32251;BME280;41295;48.518;9.206;2023-04-09T01:10:27;97805.16;;;8.55;66.76
32251;BME280;41295;48.518;9.206;2023-04-09T01:12:37;97806.88;;;8.56;67.09
32251;BME280;41295;48.518;9.206;2023-04-09T01:14:48;97804.28;;;8.56;67.05
32251;BME280;41295;48.518;9.206;2023-04-09T01:16:54;97817.28;;;8.56;66.74
32251;BME280;41295;48.518;9.206;2023-04-09T01:19:01;97803.44;;;8.56;66.58
32251;BME280;41295;48.518;9.206;2023-04-09T01:21:12;97806.88;;;8.54;67.08
32251;BME280;41295;48.518;9.206;2023-04-09T01:23:18;97807.75;;;8.55;66.95
32251;BME280;41295;48.518;9.206;2023-04-09T01:25:36;97807.75;;;8.55;66.71
32251;BME280;41295;48.518;9.206;2023-04-09T01:27:53;97803.47;;;8.52;67.13
32251;BME280;41295;48.518;9.206;2023-04-09T01:30:03;97804.28;;;8.54;66.81
32251;BME280;41295;48.518;9.206;2023-04-09T01:32:06;97811.28;;;8.51;66.93
32251;BME280;41295;48.518;9.206;2023-04-09T01:34:10;97807.88;;;8.49;66.80
32251;BME280;41295;48.518;9.206;2023-04-09T01:36:13;97807.06;;;8.47;66.91
32251;BME280;41295;48.518;9.206;2023-04-09T01:38:17;97810.53;;;8.46;66.95
32251;BME280;41295;48.518;9.206;2023-04-09T01:40:21;97816.63;;;8.45;67.34
32251;BME280;41295;48.518;9.206;2023-04-09T01:42:24;97818.28;;;8.47;67.06
32251;BME280;41295;48.518;9.206;2023-04-09T01:44:28;97824.41;;;8.46;66.71
32251;BME280;41295;48.518;9.206;2023-04-09T01:46:32;97818.31;;;8.46;66.86
32251;BME280;41295;48.518;9.206;2023-04-09T01:48:36;97816.59;;;8.46;66.59
32251;BME280;41295;48.518;9.206;2023-04-09T01:50:39;97822.63;;;8.48;66.74
32251;BME280;41295;48.518;9.206;2023-04-09T01:52:42;97818.28;;;8.47;66.63
32251;BME280;41295;48.518;9.206;2023-04-09T01:54:45;97814.88;;;8.47;67.00
32251;BME280;41295;48.518;9.206;2023-04-09T01:56:47;97819.16;;;8.48;66.56
32251;BME280;41295;48.518;9.206;2023-04-09T01:58:50;97819.16;;;8.48;67.09
32251;BME280;41295;48.518;9.206;2023-04-09T02:00:59;97824.41;;;8.46;66.66
32251;BME280;41295;48.518;9.206;2023-04-09T02:03:07;97816.59;;;8.46;66.88
32251;BME280;41295;48.518;9.206;2023-04-09T02:05:14;97818.44;;;8.41;67.16
32251;BME280;41295;48.518;9.206;2023-04-09T02:07:31;97820.19;;;8.39;66.74
32251;BME280;41295;48.518;9.206;2023-04-09T02:09:39;97821.94;;;8.38;67.19
32251;BME280;41295;48.518;9.206;2023-04-09T02:11:42;97817.63;;;8.37;67.42
32251;BME280;41295;48.518;9.206;2023-04-09T02:13:47;97821.97;;;8.37;67.09
32251;BME280;41295;48.518;9.206;2023-04-09T02:15:51;97820.31;;;8.34;67.49
32251;BME280;41295;48.518;9.206;2023-04-09T02:17:54;97808.19;;;8.33;67.09
32251;BME280;41295;48.518;9.206;2023-04-09T02:19:58;97814.28;;;8.32;67.16
32251;BME280;41295;48.518;9.206;2023-04-09T02:22:03;97810.91;;;8.27;67.20
32251;BME280;41295;48.518;9.206;2023-04-09T02:24:05;97811.75;;;8.27;67.21
32251;BME280;41295;48.518;9.206;2023-04-09T02:26:08;97806.56;;;8.27;67.33
32251;BME280;41295;48.518;9.206;2023-04-09T02:28:10;97807.41;;;8.28;67.81
32251;BME280;41295;48.518;9.206;2023-04-09T02:30:13;97800.31;;;8.38;67.58
32251;BME280;41295;48.518;9.206;2023-04-09T02:32:16;97795.22;;;8.32;67.39
32251;BME280;41295;48.518;9.206;2023-04-09T02:34:19;97800.56;;;8.24;67.47
32251;BME280;41295;48.518;9.206;2023-04-09T02:36:22;97801.53;;;8.20;67.73
32251;BME280;41295;48.518;9.206;2023-04-09T02:38:26;97795.50;;;8.17;68.16
32251;BME280;41295;48.518;9.206;2023-04-09T02:40:31;97795.56;;;8.14;68.17
32251;BME280;41295;48.518;9.206;2023-04-09T02:42:34;97801.66;;;8.12;68.42
32251;BME280;41295;48.518;9.206;2023-04-09T02:44:36;97799.09;;;8.10;68.22
32251;BME280;41295;48.518;9.206;2023-04-09T02:46:40;97797.38;;;8.11;68.28
32251;BME280;41295;48.518;9.206;2023-04-09T02:48:42;97800.84;;;8.10;68.58
32251;BME280;41295;48.518;9.206;2023-04-09T02:50:45;97805.19;;;8.07;68.27
32251;BME280;41295;48.518;9.206;2023-04-09T02:52:49;97802.59;;;8.09;68.41
32251;BME280;41295;48.518;9.206;2023-04-09T02:54:51;97806.00;;;8.11;67.99
32251;BME280;41295;48.518;9.206;2023-04-09T02:56:54;97800.81;;;8.11;68.20
32251;BME280;41295;48.518;9.206;2023-04-09T02:58:57;97806.81;;;8.13;68.36
32251;BME280;41295;48.518;9.206;2023-04-09T03:00:59;97804.25;;;8.12;68.21
32251;BME280;41295;48.518;9.206;2023-04-09T03:03:02;97804.25;;;8.12;68.29
32251;BME280;41295;48.518;9.206;2023-04-09T03:05:05;97799.00;;;8.15;68.16
32251;BME280;41295;48.518;9.206;2023-04-09T03:07:08;97797.28;;;8.15;68.11
32251;BME280;41295;48.518;9.206;2023-04-09T03:09:12;97798.13;;;8.16;68.46
32251;BME280;41295;48.518;9.206;2023-04-09T03:11:14;97794.78;;;8.11;68.55
32251;BME280;41295;48.518;9.206;2023-04-09T03:13:17;97791.34;;;8.09;68.42
32251;BME280;41295;48.518;9.206;2023-04-09T03:15:20;97788.75;;;8.09;68.57
32251;BME280;41295;48.518;9.206;2023-04-09T03:17:22;97793.03;;;8.10;68.66
32251;BME280;41295;48.518;9.206;2023-04-09T03:19:27;97788.72;;;8.10;68.65
32251;BME280;41295;48.518;9.206;2023-04-09T03:21:31;97787.84;;;8.10;68.82
32251;BME280;41295;48.518;9.206;2023-04-09T03:23:34;97779.25;;;8.06;68.54
32251;BME280;41295;48.518;9.206;2023-04-09T03:25:38;97787.94;;;8.05;68.94
32251;BME280;41295;48.518;9.206;2023-04-09T03:27:41;97795.75;;;8.05;68.90
32251;BME280;41295;48.518;9.206;2023-04-09T03:29:43;97793.13;;;8.05;69.12
32251;BME280;41295;48.518;9.206;2023-04-09T03:31:46;97782.75;;;8.05;69.13
32251;BME280;41295;48.518;9.206;2023-04-09T03:33:49;97784.50;;;8.03;68.98
32251;BME280;41295;48.518;9.206;2023-04-09T03:35:51;97794.03;;;8.04;69.11
32251;BME280;41295;48.518;9.206;2023-04-09T03:37:54;97790.53;;;8.05;68.90
32251;BME280;41295;48.518;9.206;2023-04-09T03:39:56;97789.69;;;8.04;68.94
32251;BME280;41295;48.518;9.206;2023-04-09T03:42:00;97789.69;;;8.04;69.10
32251;BME280;41295;48.518;9.206;2023-04-09T03:44:03;97786.19;;;8.07;69.05
32251;BME280;41295;48.518;9.206;2023-04-09T03:46:10;97787.03;;;8.06;68.85
32251;BME280;41295;48.518;9.206;2023-04-09T03:48:13;97791.41;;;8.05;68.73
32251;BME280;41295;48.518;9.206;2023-04-09T03:50:16;97786.19;;;8.07;68.65
32251;BME280;41295;48.518;9.206;2023-04-09T03:52:20;97781.00;;;8.07;68.51
32251;BME280;41295;48.518;9.206;2023-04-09T03:54:22;97784.41;;;8.07;68.77
32251;BME280;41295;48.518;9.206;2023-04-09T03:56:25;97784.31;;;8.14;68.47
32251;BME280;41295;48.518;9.206;2023-04-09T03:58:30;97782.63;;;8.11;68.11
32251;BME280;41295;48.518;9.206;2023-04-09T04:00:33;97785.38;;;8.03;68.84
32251;BME280;41295;48.518;9.206;2023-04-09T04:02:35;97788.03;;;8.00;68.86
32251;BME280;41295;48.518;9.206;2023-04-09T04:04:38;97786.28;;;8.01;69.03
32251;BME280;41295;48.518;9.206;2023-04-09T04:06:41;97781.13;;;7.99;69.24
32251;BME280;41295;48.518;9.206;2023-04-09T04:08:43;97786.25;;;8.02;69.24
32251;BME280;41295;48.518;9.206;2023-04-09T04:10:46;97781.91;;;8.03;69.25
32251;BME280;41295;48.518;9.206;2023-04-09T04:12:48;97785.41;;;8.02;69.15
32251;BME280;41295;48.518;9.206;2023-04-09T04:14:52;97786.25;;;8.02;69.32
32251;BME280;41295;48.518;9.206;2023-04-09T04:16:55;97786.25;;;8.04;68.75
32251;BME280;41295;48.518;9.206;2023-04-09T04:18:57;97780.25;;;7.99;69.22
32251;BME280;41295;48.518;9.206;2023-04-09T04:21:00;97792.41;;;7.98;69.19
32251;BME280;41295;48.518;9.206;2023-04-09T04:23:03;97779.50;;;7.93;69.27
32251;BME280;41295;48.518;9.206;2023-04-09T04:25:07;97787.28;;;7.93;69.52
32251;BME280;41295;48.518;9.206;2023-04-09T04:27:09;97785.53;;;7.94;69.16
32251;BME280;41295;48.518;9.206;2023-04-09T04:29:12;97792.44;;;7.97;69.06
32251;BME280;41295;48.518;9.206;2023-04-09T04:31:16;97791.56;;;7.96;69.14
32251;BME280;41295;48.518;9.206;2023-04-09T04:33:18;97793.28;;;7.97;69.35
32251;BME280;41295;48.518;9.206;2023-04-09T04:35:21;97797.63;;;7.97;69.13
32251;BME280;41295;48.518;9.206;2023-04-09T04:37:24;97797.66;;;7.95;69.65
32251;BME280;41295;48.518;9.206;2023-04-09T04:39:27;97797.63;;;7.97;69.60
32251;BME280;41295;48.518;9.206;2023-04-09T04:41:29;97802.78;;;7.98;69.37
32251;BME280;41295;48.518;9.206;2023-04-09T04:43:32;97795.88;;;7.97;69.31
32251;BME280;41295;48.518;9.206;2023-04-09T04:45:35;97806.28;;;7.96;69.36
32251;BME280;41295;48.518;9.206;2023-04-09T04:47:39;97803.69;;;7.96;69.54
32251;BME280;41295;48.518;9.206;2023-04-09T04:49:41;97810.66;;;7.95;69.27
32251;BME280;41295;48.518;9.206;2023-04-09T04:51:44;97814.13;;;7.94;69.40
32251;BME280;41295;48.518;9.206;2023-04-09T04:53:47;97803.72;;;7.94;69.75
32251;BME280;41295;48.518;9.206;2023-04-09T04:55:49;97808.88;;;7.96;69.63
32251;BME280;41295;48.518;9.206;2023-04-09T04:57:55;97807.13;;;7.98;69.80
32251;BME280;41295;48.518;9.206;2023-04-09T04:59:57;97808.84;;;7.97;69.48
32251;BME280;41295;48.518;9.206;2023-04-09T05:02:00;97808.88;;;7.96;69.78
32251;BME280;41295;48.518;9.206;2023-04-09T05:04:07;97814.13;;;7.94;69.39
32251;BME280;41295;48.518;9.206;2023-04-09T05:06:10;97810.69;;;7.92;69.38
32251;BME280;41295;48.518;9.206;2023-04-09T05:08:12;97802.94;;;7.90;69.82
32251;BME280;41295;48.518;9.206;2023-04-09T05:10:15;97808.13;;;7.90;69.67
32251;BME280;41295;48.518;9.206;2023-04-09T05:12:18;97815.84;;;7.93;69.71
32251;BME280;41295;48.518;9.206;2023-04-09T05:14:20;97814.19;;;7.91;69.47
32251;BME280;41295;48.518;9.206;2023-04-09T05:16:24;97814.13;;;7.94;69.71
32251;BME280;41295;48.518;9.206;2023-04-09T05:18:27;97808.97;;;7.91;69.60
32251;BME280;41295;48.518;9.206;2023-04-09T05:20:31;97812.44;;;7.91;69.54
32251;BME280;41295;48.518;9.206;2023-04-09T05:22:33;97814.19;;;7.91;69.61
32251;BME280;41295;48.518;9.206;2023-04-09T05:24:36;97815.91;;;7.90;69.65
32251;BME280;41295;48.518;9.206;2023-04-09T05:26:39;97816.78;;;7.91;69.54
32251;BME280;41295;48.518;9.206;2023-04-09T05:28:41;97815.03;;;7.90;69.78
32251;BME280;41295;48.518;9.206;2023-04-09T05:30:45;97804.66;;;7.91;70.15
32251;BME280;41295;48.518;9.206;2023-04-09T05:32:48;97815.00;;;7.93;69.72
32251;BME280;41295;48.518;9.206;2023-04-09T05:34:50;97813.28;;;7.92;69.92
32251;BME280;41295;48.518;9.206;2023-04-09T05:36:54;97814.16;;;7.92;69.81
32251;BME280;41295;48.518;9.206;2023-04-09T05:38:57;97820.25;;;7.91;69.94
32251;BME280;41295;48.518;9.206;2023-04-09T05:40:59;97815.88;;;7.92;70.24
32251;BME280;41295;48.518;9.206;2023-04-09T05:43:02;97819.34;;;7.92;70.12
32251;BME280;41295;48.518;9.206;2023-04-09T05:45:06;97812.41;;;7.93;70.23
32251;BME280;41295;48.518;9.206;2023-04-09T05:47:08;97817.59;;;7.93;69.99
32251;BME280;41295;48.518;9.206;2023-04-09T05:49:11;97808.91;;;7.94;70.43
32251;BME280;41295;48.518;9.206;2023-04-09T05:51:13;97816.72;;;7.94;70.38
32251;BME280;41295;48.518;9.206;2023-04-09T05:53:18;97816.69;;;7.96;70.06
32251;BME280;41295;48.518;9.206;2023-04-09T05:55:20;97821.00;;;7.97;70.54
32251;BME280;41295;48.518;9.206;2023-04-09T05:57:25;97818.31;;;8.01;70.34
32251;BME280;41295;48.518;9.206;2023-04-09T05:59:30;97807.94;;;8.01;70.52
32251;BME280;41295;48.518;9.206;2023-04-09T06:01:33;97814.81;;;8.04;70.19
32251;BME280;41295;48.518;9.206;2023-04-09T06:03:35;97809.44;;;8.13;70.00
32251;BME280;41295;48.518;9.206;2023-04-09T06:05:38;97809.44;;;8.13;69.91
32251;BME280;41295;48.518;9.206;2023-04-09T06:07:41;97803.41;;;8.11;70.19
32251;BME280;41295;48.518;9.206;2023-04-09T06:09:45;97809.38;;;8.16;69.86
32251;BME280;41295;48.518;9.206;2023-04-09T06:11:47;97812.00;;;8.16;69.42
32251;BME280;41295;48.518;9.206;2023-04-09T06:13:50;97816.25;;;8.19;69.31
32251;BME280;41295;48.518;9.206;2023-04-09T06:15:53;97806.78;;;8.16;69.12
32251;BME280;41295;48.518;9.206;2023-04-09T06:17:56;97814.56;;;8.18;68.66
32251;BME280;41295;48.518;9.206;2023-04-09T06:19:59;97817.16;;;8.18;68.57
32251;BME280;41295;48.518;9.206;2023-04-09T06:22:02;97811.03;;;8.21;68.23
32251;BME280;41295;48.518;9.206;2023-04-09T06:24:05;97807.50;;;8.25;68.31
32251;BME280;41295;48.518;9.206;2023-04-09T06:26:09;97810.97;;;8.24;67.85
32251;BME280;41295;48.518;9.206;2023-04-09T06:28:12;97806.59;;;8.26;67.92
32251;BME280;41295;48.518;9.206;2023-04-09T06:30:14;97807.41;;;8.28;67.89
32251;BME280;41295;48.518;9.206;2023-04-09T06:32:17;97807.34;;;8.31;67.53
32251;BME280;41295;48.518;9.206;2023-04-09T06:34:19;97808.09;;;8.38;67.14
32251;BME280;41295;48.518;9.206;2023-04-09T06:36:22;97815.91;;;8.36;66.84
32251;BME280;41295;48.518;9.206;2023-04-09T06:38:25;97815.03;;;8.37;66.84
32251;BME280;41295;48.518;9.206;2023-04-09T06:40:27;97818.50;;;8.38;66.77
32251;BME280;41295;48.518;9.206;2023-04-09T06:42:31;97817.53;;;8.42;66.82
32251;BME280;41295;48.518;9.206;2023-04-09T06:44:34;97818.41;;;8.42;66.07
32251;BME280;41295;48.518;9.206;2023-04-09T06:46:36;97824.44;;;8.45;65.92
32251;BME280;41295;48.518;9.206;2023-04-09T06:48:39;97819.09;;;8.51;64.20
32251;BME280;41295;48.518;9.206;2023-04-09T06:50:43;97817.44;;;8.48;64.37
32251;BME280;41295;48.518;9.206;2023-04-09T06:52:45;97820.06;;;8.47;64.23
32251;BME280;41295;48.518;9.206;2023-04-09T06:54:48;97820.84;;;8.49;64.44
32251;BME280;41295;48.518;9.206;2023-04-09T06:56:50;97821.66;;;8.54;64.30
32251;BME280;41295;48.518;9.206;2023-04-09T06:58:54;97823.34;;;8.55;64.56
32251;BME280;41295;48.518;9.206;2023-04-09T07:00:57;97821.66;;;8.56;63.99
32251;BME280;41295;48.518;9.206;2023-04-09T07:03:00;97819.00;;;8.57;64.17
32251;BME280;41295;48.518;9.206;2023-04-09T07:05:04;97816.41;;;8.57;64.13
32251;BME280;41295;48.518;9.206;2023-04-09T07:07:06;97820.72;;;8.58;64.48
32251;BME280;41295;48.518;9.206;2023-04-09T07:09:09;97817.25;;;8.59;64.58
32251;BME280;41295;48.518;9.206;2023-04-09T07:11:12;97829.28;;;8.63;64.73
32251;BME280;41295;48.518;9.206;2023-04-09T07:13:17;97824.84;;;8.67;64.94
32251;BME280;41295;48.518;9.206;2023-04-09T07:15:21;97824.03;;;8.66;65.23
32251;BME280;41295;48.518;9.206;2023-04-09T07:17:23;97824.00;;;8.68;65.30
32251;BME280;41295;48.518;9.206;2023-04-09T07:19:26;97823.09;;;8.69;65.57
32251;BME280;41295;48.518;9.206;2023-04-09T07:21:29;97823.91;;;8.71;65.25
32251;BME280;41295;48.518;9.206;2023-04-09T07:23:33;97814.38;;;8.72;64.85
32251;BME280;41295;48.518;9.206;2023-04-09T07:25:36;97818.66;;;8.74;64.19
32251;BME280;41295;48.518;9.206;2023-04-09T07:27:39;97815.16;;;8.75;64.02
32251;BME280;41295;48.518;9.206;2023-04-09T07:29:42;97817.78;;;8.75;63.40
32251;BME280;41295;48.518;9.206;2023-04-09T07:31:47;97820.25;;;8.80;63.34
32251;BME280;41295;48.518;9.206;2023-04-09T07:33:49;97818.56;;;8.77;63.56
32251;BME280;41295;48.518;9.206;2023-04-09T07:35:52;97820.22;;;8.82;63.64
32251;BME280;41295;48.518;9.206;2023-04-09T07:37:56;97830.59;;;8.83;63.79
32251;BME280;41295;48.518;9.206;2023-04-09T07:39:59;97833.22;;;8.82;63.95
32251;BME280;41295;48.518;9.206;2023-04-09T07:42:02;97825.38;;;8.83;63.89
32251;BME280;41295;48.518;9.206;2023-04-09T07:44:04;97833.06;;;8.89;63.66
32251;BME280;41295;48.518;9.206;2023-04-09T07:46:07;97833.09;;;8.88;64.17
32251;BME280;41295;48.518;9.206;2023-04-09T07:48:11;97834.84;;;8.87;63.74
32251;BME280;41295;48.518;9.206;2023-04-09T07:50:14;97838.31;;;8.86;64.21
32251;BME280;41295;48.518;9.206;2023-04-09T07:52:17;97839.94;;;8.92;64.06
32251;BME280;41295;48.518;9.206;2023-04-09T07:54:20;97839.03;;;8.95;64.05
32251;BME280;41295;48.518;9.206;2023-04-09T07:56:23;97840.66;;;8.99;64.56
32251;BME280;41295;48.518;9.206;2023-04-09T07:58:25;97843.25;;;9.00;64.36
32251;BME280;41295;48.518;9.206;2023-04-09T08:00:28;97839.69;;;9.03;64.29
32251;BME280;41295;48.518;9.206;2023-04-09T08:02:31;97837.09;;;9.03;64.14
32251;BME280;41295;48.518;9.206;2023-04-09T08:04:35;97841.31;;;9.09;64.29
32251;BME280;41295;48.518;9.206;2023-04-09T08:06:38;97840.38;;;9.11;64.17
32251;BME280;41295;48.518;9.206;2023-04-09T08:08:41;97835.16;;;9.13;63.79
32251;BME280;41295;48.518;9.206;2023-04-09T08:10:44;97843.81;;;9.13;64.41
32251;BME280;41295;48.518;9.206;2023-04-09T08:12:47;97842.06;;;9.14;64.50
32251;BME280;41295;48.518;9.206;2023-04-09T08:14:49;97834.22;;;9.16;64.54
32251;BME280;41295;48.518;9.206;2023-04-09T08:16:52;97837.56;;;9.21;63.84
32251;BME280;41295;48.518;9.206;2023-04-09T08:18:55;97839.31;;;9.22;63.75
32251;BME280;41295;48.518;9.206;2023-04-09T08:21:03;97840.09;;;9.24;63.22
32251;BME280;41295;48.518;9.206;2023-04-09T08:23:06;97838.41;;;9.23;62.68
32251;BME280;41295;48.518;9.206;2023-04-09T08:25:08;97841.88;;;9.23;62.44
32251;BME280;41295;48.518;9.206;2023-04-09T08:27:11;97842.69;;;9.25;62.58
32251;BME280;41295;48.518;9.206;2023-04-09T08:29:14;97847.00;;;9.26;62.11
32251;BME280;41295;48.518;9.206;2023-04-09T08:31:16;97846.16;;;9.24;62.11
32251;BME280;41295;48.518;9.206;2023-04-09T08:33:19;97847.06;;;9.23;61.77
32251;BME280;41295;48.518;9.206;2023-04-09T08:35:22;97852.22;;;9.25;61.56
32251;BME280;41295;48.518;9.206;2023-04-09T08:37:26;97851.28;;;9.27;61.25
32251;BME280;41295;48.518;9.206;2023-04-09T08:39:29;97851.25;;;9.31;60.88
32251;BME280;41295;48.518;9.206;2023-04-09T08:41:31;97855.13;;;9.49;57.74
32251;BME280;41295;48.518;9.206;2023-04-09T08:43:34;97853.31;;;9.53;55.65
32251;BME280;41295;48.518;9.206;2023-04-09T08:45:58;97857.59;;;9.55;55.61
32251;BME280;41295;48.518;9.206;2023-04-09T08:48:01;97854.63;;;9.71;53.39
32251;BME280;41295;48.518;9.206;2023-04-09T08:50:05;97853.75;;;9.70;54.25
32251;BME280;41295;48.518;9.206;2023-04-09T08:52:07;97869.25;;;9.77;54.13
32251;BME280;41295;48.518;9.206;2023-04-09T08:54:14;97855.22;;;9.82;52.62
32251;BME280;41295;48.518;9.206;2023-04-09T08:56:17;97857.66;;;9.89;52.12
32251;BME280;41295;48.518;9.206;2023-04-09T08:58:21;97856.66;;;9.94;51.90
32251;BME280;41295;48.518;9.206;2023-04-09T09:00:24;97855.38;;;10.11;51.74
32251;BME280;41295;48.518;9.206;2023-04-09T09:02:27;97861.41;;;10.11;49.90
32251;BME280;41295;48.518;9.206;2023-04-09T09:04:42;97855.13;;;10.19;49.83
32251;BME280;41295;48.518;9.206;2023-04-09T09:06:45;97852.34;;;10.27;48.94
32251;BME280;41295;48.518;9.206;2023-04-09T09:08:59;97858.19;;;10.35;47.08
32251;BME280;41295;48.518;9.206;2023-04-09T09:11:03;97863.56;;;10.62;46.93
32251;BME280;41295;48.518;9.206;2023-04-09T09:13:16;97857.59;;;10.58;47.63
32251;BME280;41295;48.518;9.206;2023-04-09T09:15:26;97865.50;;;10.55;46.12
32251;BME280;41295;48.518;9.206;2023-04-09T09:17:29;97863.31;;;10.72;46.32
32251;BME280;41295;48.518;9.206;2023-04-09T09:19:32;97858.19;;;10.68;47.30
32251;BME280;41295;48.518;9.206;2023-04-09T09:21:35;97859.69;;;10.77;46.42
32251;BME280;41295;48.518;9.206;2023-04-09T09:23:39;97862.34;;;10.74;46.81
32251;BME280;41295;48.518;9.206;2023-04-09T09:25:42;97870.19;;;10.74;46.53
32251;BME280;41295;48.518;9.206;2023-04-09T09:27:46;97865.97;;;10.70;46.83
32251;BME280;41295;48.518;9.206;2023-04-09T09:29:49;97865.16;;;10.68;47.25
32251;BME280;41295;48.518;9.206;2023-04-09T09:31:52;97872.03;;;10.70;47.40
32251;BME280;41295;48.518;9.206;2023-04-09T09:33:55;97872.78;;;10.74;46.45
32251;BME280;41295;48.518;9.206;2023-04-09T09:35:58;97869.50;;;10.67;46.96
32251;BME280;41295;48.518;9.206;2023-04-09T09:38:02;97867.00;;;10.94;46.73
32251;BME280;41295;48.518;9.206;2023-04-09T09:40:06;97869.28;;;11.05;45.44
32251;BME280;41295;48.518;9.206;2023-04-09T09:42:09;97866.91;;;10.98;45.24
32251;BME280;41295;48.518;9.206;2023-04-09T09:44:30;97883.16;;;10.77;46.79
32251;BME280;41295;48.518;9.206;2023-04-09T09:46:35;97882.19;;;10.80;47.76
32251;BME280;41295;48.518;9.206;2023-04-09T09:48:38;97882.53;;;10.67;48.37
32251;BME280;41295;48.518;9.206;2023-04-09T09:50:41;97883.56;;;10.62;49.29
32251;BME280;41295;48.518;9.206;2023-04-09T09:52:46;97879.16;;;10.64;49.82
32251;BME280;41295;48.518;9.206;2023-04-09T09:54:51;97882.03;;;10.54;50.01
32251;BME280;41295;48.518;9.206;2023-04-09T09:56:55;97882.22;;;10.48;50.60
32251;BME280;41295;48.518;9.206;2023-04-09T09:59:06;97885.72;;;10.45;50.72
32251;BME280;41295;48.518;9.206;2023-04-09T10:01:13;97888.25;;;10.50;50.29
32251;BME280;41295;48.518;9.206;2023-04-09T10:03:20;97887.13;;;10.59;49.51
32251;BME280;41295;48.518;9.206;2023-04-09T10:05:24;97886.50;;;10.49;49.91
32251;BME280;41295;48.518;9.206;2023-04-09T10:07:28;97897.00;;;10.48;50.21
32251;BME280;41295;48.518;9.206;2023-04-09T10:09:32;97884.53;;;10.59;50.35
32251;BME280;41295;48.518;9.206;2023-04-09T10:11:36;97888.97;;;10.55;50.53
32251;BME280;41295;48.518;9.206;2023-04-09T10:13:43;97883.50;;;10.65;49.31
32251;BME280;41295;48.518;9.206;2023-04-09T10:15:48;97883.47;;;10.66;48.56
32251;BME280;41295;48.518;9.206;2023-04-09T10:17:52;97881.66;;;10.68;48.55
32251;BME280;41295;48.518;9.206;2023-04-09T10:20:03;97873.47;;;10.81;46.85
32251;BME280;41295;48.518;9.206;2023-04-09T10:22:09;97871.72;;;10.81;47.75
32251;BME280;41295;48.518;9.206;2023-04-09T10:24:13;97867.31;;;10.83;47.92
32251;BME280;41295;48.518;9.206;2023-04-09T10:26:17;97876.44;;;10.99;46.88
32251;BME280;41295;48.518;9.206;2023-04-09T10:28:22;97873.16;;;10.92;47.53
32251;BME280;41295;48.518;9.206;2023-04-09T10:30:30;97877.38;;;10.96;47.36
32251;BME280;41295;48.518;9.206;2023-04-09T10:32:34;97868.69;;;10.95;47.98
32251;BME280;41295;48.518;9.206;2023-04-09T10:34:39;97873.19;;;10.90;47.78
32251;BME280;41295;48.518;9.206;2023-04-09T10:36:42;97873.25;;;10.89;48.07
32251;BME280;41295;48.518;9.206;2023-04-09T10:38:45;97861.94;;;10.90;47.54
32251;BME280;41295;48.518;9.206;2023-04-09T10:40:49;97868.31;;;11.08;46.70
32251;BME280;41295;48.518;9.206;2023-04-09T10:42:53;97865.31;;;10.92;47.07
32251;BME280;41295;48.518;9.206;2023-04-09T10:45:05;97862.72;;;10.92;47.47
32251;BME280;41295;48.518;9.206;2023-04-09T10:47:09;97872.06;;;10.99;47.47
32251;BME280;41295;48.518;9.206;2023-04-09T10:49:15;97871.41;;;10.92;47.93
32251;BME280;41295;48.518;9.206;2023-04-09T10:51:20;97863.56;;;10.92;48.25
32251;BME280;41295;48.518;9.206;2023-04-09T10:53:24;97867.97;;;10.90;48.54
32251;BME280;41295;48.518;9.206;2023-04-09T10:55:33;97863.63;;;10.91;48.10
32251;BME280;41295;48.518;9.206;2023-04-09T10:57:35;97865.00;;;11.03;47.46
32251;BME280;41295;48.518;9.206;2023-04-09T10:59:41;97857.22;;;11.01;47.33
32251;BME280;41295;48.518;9.206;2023-04-09T11:01:51;97858.84;;;11.05;47.58
32251;BME280;41295;48.518;9.206;2023-04-09T11:04:07;97855.28;;;11.08;47.67